sensor_id;sensor_type;location;lat;lon;timestamp;temperature;humidity
4896;DHT22;2463;49.948;8.472;2022-09-25T00:01:02;14.40;99.90
4896;DHT22;2463;49.948;8.472;2022-09-25T00:03:30;14.40;99.90
4896;DHT22;2463;49.948;8.472;2022-09-25T00:06:08;14.40;99.90
4896;DHT22;2463;49.948;8.472;2022-09-25T00:08:35;14.40;99.90
4896;DHT22;2463;49.948;8.472;2022-09-25T00:11:16;14.40;99.90
4896;DHT22;2463;49.948;8.472;2022-09-25T00:13:44;14.40;99.90
4896;DHT22;2463;49.948;8.472;2022-09-25T00:16:13;14.40;99.90
4896;DHT22;2463;49.948;8.472;2022-09-25T00:18:41;14.40;99.90
4896;DHT22;2463;49.948;8.472;2022-09-25T00:21:26;14.40;99.90
4896;DHT22;2463;49.948;8.472;2022-09-25T00:23:57;14.40;99.90
4896;DHT22;2463;49.948;8.472;2022-09-25T00:26:30;14.40;99.90
4896;DHT22;2463;49.948;8.472;2022-09-25T00:28:58;14.40;99.90
4896;DHT22;2463;49.948;8.472;2022-09-25T00:31:27;14.40;99.90
4896;DHT22;2463;49.948;8.472;2022-09-25T00:33:58;14.40;99.90
4896;DHT22;2463;49.948;8.472;2022-09-25T00:36:26;14.30;99.90
4896;DHT22;2463;49.948;8.472;2022-09-25T00:38:53;14.40;99.90
4896;DHT22;2463;49.948;8.472;2022-09-25T00:41:22;14.40;99.90
4896;DHT22;2463;49.948;8.472;2022-09-25T00:43:51;14.40;99.90
4896;DHT22;2463;49.948;8.472;2022-09-25T00:46:40;14.50;99.90
4896;DHT22;2463;49.948;8.472;2022-09-25T00:49:16;14.40;99.90
4896;DHT22;2463;49.948;8.472;2022-09-25T00:51:50;14.40;99.90
4896;DHT22;2463;49.948;8.472;2022-09-25T00:54:33;14.40;99.90
4896;DHT22;2463;49.948;8.472;2022-09-25T00:57:04;14.40;99.90
4896;DHT22;2463;49.948;8.472;2022-09-25T00:59:42;14.40;99.90
4896;DHT22;2463;49.948;8.472;2022-09-25T01:02:13;14.40;99.90
4896;DHT22;2463;49.948;8.472;2022-09-25T01:04:43;14.40;99.90
4896;DHT22;2463;49.948;8.472;2022-09-25T01:07:12;14.40;99.90
4896;DHT22;2463;49.948;8.472;2022-09-25T01:09:40;14.40;99.90
4896;DHT22;2463;49.948;8.472;2022-09-25T01:12:07;14.30;99.90
4896;DHT22;2463;49.948;8.472;2022-09-25T01:14:35;14.30;99.90
4896;DHT22;2463;49.948;8.472;2022-09-25T01:17:18;14.30;99.90
4896;DHT22;2463;49.948;8.472;2022-09-25T01:25:43;14.40;99.90
4896;DHT22;2463;49.948;8.472;2022-09-25T01:28:23;14.40;99.90
4896;DHT22;2463;49.948;8.472;2022-09-25T01:30:57;14.40;99.90
4896;DHT22;2463;49.948;8.472;2022-09-25T01:33:35;14.40;99.90
4896;DHT22;2463;49.948;8.472;2022-09-25T01:36:05;14.40;99.90
4896;DHT22;2463;49.948;8.472;2022-09-25T01:46:27;14.40;99.90
4896;DHT22;2463;49.948;8.472;2022-09-25T01:48:58;14.50;99.90
4896;DHT22;2463;49.948;8.472;2022-09-25T01:51:36;14.50;99.90
4896;DHT22;2463;49.948;8.472;2022-09-25T01:54:10;14.40;99.90
4896;DHT22;2463;49.948;8.472;2022-09-25T01:57:06;14.40;99.90
4896;DHT22;2463;49.948;8.472;2022-09-25T01:59:52;14.40;99.90
4896;DHT22;2463;49.948;8.472;2022-09-25T02:02:25;14.40;99.90
4896;DHT22;2463;49.948;8.472;2022-09-25T02:04:56;14.50;99.90
4896;DHT22;2463;49.948;8.472;2022-09-25T02:07:34;14.40;99.90
4896;DHT22;2463;49.948;8.472;2022-09-25T02:10:29;14.50;99.90
4896;DHT22;2463;49.948;8.472;2022-09-25T02:13:04;14.40;99.90
4896;DHT22;2463;49.948;8.472;2022-09-25T02:15:36;14.40;99.90
4896;DHT22;2463;49.948;8.472;2022-09-25T02:18:09;14.40;99.90
4896;DHT22;2463;49.948;8.472;2022-09-25T02:21:43;14.40;99.90
4896;DHT22;2463;49.948;8.472;2022-09-25T02:24:23;14.40;99.90
4896;DHT22;2463;49.948;8.472;2022-09-25T02:26:51;14.40;99.90
4896;DHT22;2463;49.948;8.472;2022-09-25T02:29:19;14.40;99.90
4896;DHT22;2463;49.948;8.472;2022-09-25T02:31:55;14.40;99.90
4896;DHT22;2463;49.948;8.472;2022-09-25T02:34:23;14.40;99.90
4896;DHT22;2463;49.948;8.472;2022-09-25T02:36:50;14.40;99.90
4896;DHT22;2463;49.948;8.472;2022-09-25T02:39:21;14.40;99.90
4896;DHT22;2463;49.948;8.472;2022-09-25T02:47:20;14.40;99.90
4896;DHT22;2463;49.948;8.472;2022-09-25T02:50:12;14.40;99.90
4896;DHT22;2463;49.948;8.472;2022-09-25T02:58:31;14.40;99.90
4896;DHT22;2463;49.948;8.472;2022-09-25T03:01:03;14.40;99.90
4896;DHT22;2463;49.948;8.472;2022-09-25T03:03:32;14.40;99.90
4896;DHT22;2463;49.948;8.472;2022-09-25T03:06:01;14.50;99.90
4896;DHT22;2463;49.948;8.472;2022-09-25T03:08:29;14.50;99.90
4896;DHT22;2463;49.948;8.472;2022-09-25T03:11:06;14.50;99.90
4896;DHT22;2463;49.948;8.472;2022-09-25T03:13:34;14.60;99.90
4896;DHT22;2463;49.948;8.472;2022-09-25T03:19:09;14.50;99.90
4896;DHT22;2463;49.948;8.472;2022-09-25T03:21:35;14.50;99.90
4896;DHT22;2463;49.948;8.472;2022-09-25T03:24:02;14.50;99.90
4896;DHT22;2463;49.948;8.472;2022-09-25T03:26:29;14.50;99.90
4896;DHT22;2463;49.948;8.472;2022-09-25T03:28:56;14.50;99.90
4896;DHT22;2463;49.948;8.472;2022-09-25T03:31:28;14.50;99.90
4896;DHT22;2463;49.948;8.472;2022-09-25T03:33:56;14.50;99.90
4896;DHT22;2463;49.948;8.472;2022-09-25T03:36:24;14.50;99.90
4896;DHT22;2463;49.948;8.472;2022-09-25T03:38:53;14.50;99.90
4896;DHT22;2463;49.948;8.472;2022-09-25T03:41:32;14.50;99.90
4896;DHT22;2463;49.948;8.472;2022-09-25T03:44:00;14.50;99.90
4896;DHT22;2463;49.948;8.472;2022-09-25T03:46:32;14.50;99.90
4896;DHT22;2463;49.948;8.472;2022-09-25T03:49:00;14.60;99.90
4896;DHT22;2463;49.948;8.472;2022-09-25T03:51:28;14.60;99.90
4896;DHT22;2463;49.948;8.472;2022-09-25T03:53:55;14.60;99.90
4896;DHT22;2463;49.948;8.472;2022-09-25T03:56:25;14.70;99.90
4896;DHT22;2463;49.948;8.472;2022-09-25T03:58:52;14.70;99.90
4896;DHT22;2463;49.948;8.472;2022-09-25T04:01:20;14.70;99.90
4896;DHT22;2463;49.948;8.472;2022-09-25T04:03:48;14.70;99.90
4896;DHT22;2463;49.948;8.472;2022-09-25T04:06:18;14.70;99.90
4896;DHT22;2463;49.948;8.472;2022-09-25T04:08:46;14.70;99.90
4896;DHT22;2463;49.948;8.472;2022-09-25T04:11:15;14.70;99.90
4896;DHT22;2463;49.948;8.472;2022-09-25T04:13:42;14.70;99.90
4896;DHT22;2463;49.948;8.472;2022-09-25T04:16:11;14.70;99.90
4896;DHT22;2463;49.948;8.472;2022-09-25T04:18:38;14.70;99.90
4896;DHT22;2463;49.948;8.472;2022-09-25T04:21:11;14.70;99.90
4896;DHT22;2463;49.948;8.472;2022-09-25T04:23:38;14.70;99.90
4896;DHT22;2463;49.948;8.472;2022-09-25T04:26:06;14.70;99.90
4896;DHT22;2463;49.948;8.472;2022-09-25T04:28:34;14.70;99.90
4896;DHT22;2463;49.948;8.472;2022-09-25T04:31:01;14.70;99.90
4896;DHT22;2463;49.948;8.472;2022-09-25T04:33:29;14.70;99.90
4896;DHT22;2463;49.948;8.472;2022-09-25T04:36:15;14.80;99.90
4896;DHT22;2463;49.948;8.472;2022-09-25T04:38:42;14.70;99.90
4896;DHT22;2463;49.948;8.472;2022-09-25T04:41:10;14.70;99.90
4896;DHT22;2463;49.948;8.472;2022-09-25T04:43:37;14.80;99.90
4896;DHT22;2463;49.948;8.472;2022-09-25T04:46:05;14.70;99.90
4896;DHT22;2463;49.948;8.472;2022-09-25T04:48:33;14.80;99.90
4896;DHT22;2463;49.948;8.472;2022-09-25T04:51:01;14.80;99.90
4896;DHT22;2463;49.948;8.472;2022-09-25T04:53:30;14.80;99.90
4896;DHT22;2463;49.948;8.472;2022-09-25T04:56:05;14.80;99.90
4896;DHT22;2463;49.948;8.472;2022-09-25T04:58:43;14.80;99.90
4896;DHT22;2463;49.948;8.472;2022-09-25T05:01:10;14.80;99.90
4896;DHT22;2463;49.948;8.472;2022-09-25T05:03:37;14.80;99.90
4896;DHT22;2463;49.948;8.472;2022-09-25T05:06:04;14.80;99.90
4896;DHT22;2463;49.948;8.472;2022-09-25T05:08:30;14.70;99.90
4896;DHT22;2463;49.948;8.472;2022-09-25T05:10:57;14.70;99.90
4896;DHT22;2463;49.948;8.472;2022-09-25T05:13:24;14.70;99.90
4896;DHT22;2463;49.948;8.472;2022-09-25T05:15:51;14.80;99.90
4896;DHT22;2463;49.948;8.472;2022-09-25T05:18:21;14.80;99.90
4896;DHT22;2463;49.948;8.472;2022-09-25T05:20:49;14.80;99.90
4896;DHT22;2463;49.948;8.472;2022-09-25T05:23:16;14.80;99.90
4896;DHT22;2463;49.948;8.472;2022-09-25T05:25:43;14.80;99.90
4896;DHT22;2463;49.948;8.472;2022-09-25T05:28:09;14.80;99.90
4896;DHT22;2463;49.948;8.472;2022-09-25T05:30:37;14.80;99.90
4896;DHT22;2463;49.948;8.472;2022-09-25T05:33:04;14.80;99.90
4896;DHT22;2463;49.948;8.472;2022-09-25T05:35:32;14.80;99.90
4896;DHT22;2463;49.948;8.472;2022-09-25T05:37:59;14.70;99.90
4896;DHT22;2463;49.948;8.472;2022-09-25T05:40:26;14.70;99.90
4896;DHT22;2463;49.948;8.472;2022-09-25T05:42:53;14.70;99.90
4896;DHT22;2463;49.948;8.472;2022-09-25T05:45:21;14.80;99.90
4896;DHT22;2463;49.948;8.472;2022-09-25T05:48:01;14.80;99.90
4896;DHT22;2463;49.948;8.472;2022-09-25T05:50:28;14.80;99.90
4896;DHT22;2463;49.948;8.472;2022-09-25T05:52:56;14.80;99.90
4896;DHT22;2463;49.948;8.472;2022-09-25T05:55:23;14.80;99.90
4896;DHT22;2463;49.948;8.472;2022-09-25T05:57:50;14.80;99.90
4896;DHT22;2463;49.948;8.472;2022-09-25T06:00:17;14.80;99.90
4896;DHT22;2463;49.948;8.472;2022-09-25T06:02:44;14.70;99.90
4896;DHT22;2463;49.948;8.472;2022-09-25T06:05:11;14.70;99.90
4896;DHT22;2463;49.948;8.472;2022-09-25T06:07:37;14.70;99.90
4896;DHT22;2463;49.948;8.472;2022-09-25T06:10:04;14.80;99.90
4896;DHT22;2463;49.948;8.472;2022-09-25T06:12:31;14.80;99.90
4896;DHT22;2463;49.948;8.472;2022-09-25T06:14:58;14.80;99.90
4896;DHT22;2463;49.948;8.472;2022-09-25T06:17:24;14.80;99.90
4896;DHT22;2463;49.948;8.472;2022-09-25T06:19:51;14.80;99.90
4896;DHT22;2463;49.948;8.472;2022-09-25T06:22:18;14.90;99.90
4896;DHT22;2463;49.948;8.472;2022-09-25T06:24:44;14.90;99.90
4896;DHT22;2463;49.948;8.472;2022-09-25T06:27:11;14.90;99.90
4896;DHT22;2463;49.948;8.472;2022-09-25T06:29:38;14.90;99.90
4896;DHT22;2463;49.948;8.472;2022-09-25T06:32:04;15.00;99.90
4896;DHT22;2463;49.948;8.472;2022-09-25T06:34:31;15.00;99.90
4896;DHT22;2463;49.948;8.472;2022-09-25T06:36:59;15.00;99.90
4896;DHT22;2463;49.948;8.472;2022-09-25T06:39:26;15.10;99.90
4896;DHT22;2463;49.948;8.472;2022-09-25T06:41:53;15.10;99.90
4896;DHT22;2463;49.948;8.472;2022-09-25T06:44:20;15.10;99.90
4896;DHT22;2463;49.948;8.472;2022-09-25T06:46:51;15.20;99.90
4896;DHT22;2463;49.948;8.472;2022-09-25T06:49:20;15.20;99.90
4896;DHT22;2463;49.948;8.472;2022-09-25T06:51:47;15.20;99.90
4896;DHT22;2463;49.948;8.472;2022-09-25T06:54:14;15.20;99.90
4896;DHT22;2463;49.948;8.472;2022-09-25T06:56:40;15.20;99.90
4896;DHT22;2463;49.948;8.472;2022-09-25T06:59:07;15.20;99.90
4896;DHT22;2463;49.948;8.472;2022-09-25T07:01:35;15.30;99.90
4896;DHT22;2463;49.948;8.472;2022-09-25T07:04:01;15.30;99.90
4896;DHT22;2463;49.948;8.472;2022-09-25T07:06:29;15.30;99.90
4896;DHT22;2463;49.948;8.472;2022-09-25T07:08:57;15.30;99.90
4896;DHT22;2463;49.948;8.472;2022-09-25T07:11:26;15.40;99.90
4896;DHT22;2463;49.948;8.472;2022-09-25T07:13:59;15.40;99.90
4896;DHT22;2463;49.948;8.472;2022-09-25T07:16:28;15.40;99.90
4896;DHT22;2463;49.948;8.472;2022-09-25T07:18:56;15.50;99.90
4896;DHT22;2463;49.948;8.472;2022-09-25T07:21:26;15.50;99.90
4896;DHT22;2463;49.948;8.472;2022-09-25T07:23:55;15.50;99.90
4896;DHT22;2463;49.948;8.472;2022-09-25T07:26:25;15.60;99.90
4896;DHT22;2463;49.948;8.472;2022-09-25T07:28:58;15.60;99.90
4896;DHT22;2463;49.948;8.472;2022-09-25T07:31:28;15.60;99.90
4896;DHT22;2463;49.948;8.472;2022-09-25T07:33:57;15.70;99.90
4896;DHT22;2463;49.948;8.472;2022-09-25T07:36:25;15.70;99.90
4896;DHT22;2463;49.948;8.472;2022-09-25T07:38:52;15.70;99.90
4896;DHT22;2463;49.948;8.472;2022-09-25T07:41:20;15.80;99.90
4896;DHT22;2463;49.948;8.472;2022-09-25T07:43:55;15.70;99.90
4896;DHT22;2463;49.948;8.472;2022-09-25T07:46:42;15.80;99.90
4896;DHT22;2463;49.948;8.472;2022-09-25T07:49:10;15.80;99.90
4896;DHT22;2463;49.948;8.472;2022-09-25T07:51:37;15.80;99.90
4896;DHT22;2463;49.948;8.472;2022-09-25T07:54:04;15.90;99.90
4896;DHT22;2463;49.948;8.472;2022-09-25T07:56:31;16.00;99.90
4896;DHT22;2463;49.948;8.472;2022-09-25T07:59:00;16.00;99.90
4896;DHT22;2463;49.948;8.472;2022-09-25T08:01:26;16.10;99.90
4896;DHT22;2463;49.948;8.472;2022-09-25T08:03:53;16.20;99.90
4896;DHT22;2463;49.948;8.472;2022-09-25T08:06:20;16.30;99.90
4896;DHT22;2463;49.948;8.472;2022-09-25T08:08:47;16.40;99.90
4896;DHT22;2463;49.948;8.472;2022-09-25T08:11:15;16.50;99.90
4896;DHT22;2463;49.948;8.472;2022-09-25T08:13:43;16.60;99.90
4896;DHT22;2463;49.948;8.472;2022-09-25T08:16:15;16.70;99.90
4896;DHT22;2463;49.948;8.472;2022-09-25T08:18:45;16.70;99.90
4896;DHT22;2463;49.948;8.472;2022-09-25T08:21:13;16.80;99.90
4896;DHT22;2463;49.948;8.472;2022-09-25T08:23:41;16.90;99.90
4896;DHT22;2463;49.948;8.472;2022-09-25T08:26:14;16.90;99.90
4896;DHT22;2463;49.948;8.472;2022-09-25T08:28:41;17.00;99.90
4896;DHT22;2463;49.948;8.472;2022-09-25T08:31:08;17.00;99.90
4896;DHT22;2463;49.948;8.472;2022-09-25T08:33:35;17.10;99.90
4896;DHT22;2463;49.948;8.472;2022-09-25T08:36:04;17.10;99.90
4896;DHT22;2463;49.948;8.472;2022-09-25T08:38:31;17.10;99.90
4896;DHT22;2463;49.948;8.472;2022-09-25T08:43:43;17.30;99.90
4896;DHT22;2463;49.948;8.472;2022-09-25T08:46:27;17.30;99.90
4896;DHT22;2463;49.948;8.472;2022-09-25T08:49:14;17.40;99.90
4896;DHT22;2463;49.948;8.472;2022-09-25T08:51:44;17.50;99.90
4896;DHT22;2463;49.948;8.472;2022-09-25T08:54:21;17.40;99.90
4896;DHT22;2463;49.948;8.472;2022-09-25T08:56:55;17.40;99.90
4896;DHT22;2463;49.948;8.472;2022-09-25T09:01:55;17.40;99.90
4896;DHT22;2463;49.948;8.472;2022-09-25T09:04:36;17.40;99.90
4896;DHT22;2463;49.948;8.472;2022-09-25T09:07:17;17.50;99.90
4896;DHT22;2463;49.948;8.472;2022-09-25T09:16:00;17.30;99.90
4896;DHT22;2463;49.948;8.472;2022-09-25T09:18:30;17.20;99.90
4896;DHT22;2463;49.948;8.472;2022-09-25T09:21:01;17.20;99.90
4896;DHT22;2463;49.948;8.472;2022-09-25T09:23:35;17.10;99.90
4896;DHT22;2463;49.948;8.472;2022-09-25T09:26:19;17.00;99.90
4896;DHT22;2463;49.948;8.472;2022-09-25T09:45:50;16.90;99.90
4896;DHT22;2463;49.948;8.472;2022-09-25T09:48:35;16.90;99.90
4896;DHT22;2463;49.948;8.472;2022-09-25T09:51:21;16.90;99.90
4896;DHT22;2463;49.948;8.472;2022-09-25T09:54:05;16.80;99.90
4896;DHT22;2463;49.948;8.472;2022-09-25T09:56:34;16.80;99.90
4896;DHT22;2463;49.948;8.472;2022-09-25T09:59:23;16.80;99.90
4896;DHT22;2463;49.948;8.472;2022-09-25T10:02:11;16.80;99.90
4896;DHT22;2463;49.948;8.472;2022-09-25T10:04:42;16.80;99.90
4896;DHT22;2463;49.948;8.472;2022-09-25T10:07:15;16.90;99.90
4896;DHT22;2463;49.948;8.472;2022-09-25T10:09:44;16.90;99.90
4896;DHT22;2463;49.948;8.472;2022-09-25T10:12:22;16.90;99.90
4896;DHT22;2463;49.948;8.472;2022-09-25T10:14:51;16.90;99.90
4896;DHT22;2463;49.948;8.472;2022-09-25T10:17:18;16.90;99.90
4896;DHT22;2463;49.948;8.472;2022-09-25T10:19:54;16.90;99.90
4896;DHT22;2463;49.948;8.472;2022-09-25T10:22:33;16.90;99.90
4896;DHT22;2463;49.948;8.472;2022-09-25T10:25:02;16.90;99.90
4896;DHT22;2463;49.948;8.472;2022-09-25T10:27:34;16.80;99.90
4896;DHT22;2463;49.948;8.472;2022-09-25T10:30:15;16.80;99.90
4896;DHT22;2463;49.948;8.472;2022-09-25T10:33:07;16.80;99.90
4896;DHT22;2463;49.948;8.472;2022-09-25T10:38:36;16.70;99.90
4896;DHT22;2463;49.948;8.472;2022-09-25T10:41:12;16.60;99.90
4896;DHT22;2463;49.948;8.472;2022-09-25T10:43:55;16.60;99.90
4896;DHT22;2463;49.948;8.472;2022-09-25T10:46:30;16.50;99.90
4896;DHT22;2463;49.948;8.472;2022-09-25T10:49:26;16.50;99.90
4896;DHT22;2463;49.948;8.472;2022-09-25T10:52:13;16.40;99.90
4896;DHT22;2463;49.948;8.472;2022-09-25T10:54:40;16.40;99.90
4896;DHT22;2463;49.948;8.472;2022-09-25T11:00:18;16.30;99.90
4896;DHT22;2463;49.948;8.472;2022-09-25T11:02:45;16.30;99.90
4896;DHT22;2463;49.948;8.472;2022-09-25T11:05:19;16.30;99.90
4896;DHT22;2463;49.948;8.472;2022-09-25T11:07:52;16.20;99.90
4896;DHT22;2463;49.948;8.472;2022-09-25T11:10:22;16.10;99.90
4896;DHT22;2463;49.948;8.472;2022-09-25T11:12:50;16.10;99.90
4896;DHT22;2463;49.948;8.472;2022-09-25T11:15:20;16.10;99.90
4896;DHT22;2463;49.948;8.472;2022-09-25T11:17:56;16.00;99.90
4896;DHT22;2463;49.948;8.472;2022-09-25T11:20:28;16.00;99.90
4896;DHT22;2463;49.948;8.472;2022-09-25T11:23:04;16.10;99.90
4896;DHT22;2463;49.948;8.472;2022-09-25T11:26:09;16.10;99.90
4896;DHT22;2463;49.948;8.472;2022-09-25T11:28:43;16.10;99.90
4896;DHT22;2463;49.948;8.472;2022-09-25T11:31:27;16.10;99.90
4896;DHT22;2463;49.948;8.472;2022-09-25T11:34:05;16.10;99.90
4896;DHT22;2463;49.948;8.472;2022-09-25T11:37:00;16.20;99.90
4896;DHT22;2463;49.948;8.472;2022-09-25T11:39:43;16.20;99.90
4896;DHT22;2463;49.948;8.472;2022-09-25T11:43:04;16.20;99.90
4896;DHT22;2463;49.948;8.472;2022-09-25T11:45:39;16.20;99.90
4896;DHT22;2463;49.948;8.472;2022-09-25T11:51:02;16.10;99.90
4896;DHT22;2463;49.948;8.472;2022-09-25T11:53:58;16.00;99.90
4896;DHT22;2463;49.948;8.472;2022-09-25T12:11:59;15.80;99.90
4896;DHT22;2463;49.948;8.472;2022-09-25T12:14:45;15.80;99.90
4896;DHT22;2463;49.948;8.472;2022-09-25T12:17:32;15.70;99.90
4896;DHT22;2463;49.948;8.472;2022-09-25T12:26:02;15.70;99.90
4896;DHT22;2463;49.948;8.472;2022-09-25T12:28:47;15.60;99.90
4896;DHT22;2463;49.948;8.472;2022-09-25T12:35:27;15.50;99.90
4896;DHT22;2463;49.948;8.472;2022-09-25T12:40:33;15.40;99.90
4896;DHT22;2463;49.948;8.472;2022-09-25T12:43:09;15.30;99.90
4896;DHT22;2463;49.948;8.472;2022-09-25T12:49:15;15.40;99.90
4896;DHT22;2463;49.948;8.472;2022-09-25T12:51:28;15.50;99.90
4896;DHT22;2463;49.948;8.472;2022-09-25T12:56:51;15.70;99.90
4896;DHT22;2463;49.948;8.472;2022-09-25T12:59:36;15.70;99.90
4896;DHT22;2463;49.948;8.472;2022-09-25T13:02:40;15.80;99.90
4896;DHT22;2463;49.948;8.472;2022-09-25T13:05:17;15.80;99.90
4896;DHT22;2463;49.948;8.472;2022-09-25T13:10:39;15.90;99.90
4896;DHT22;2463;49.948;8.472;2022-09-25T13:13:28;15.90;99.90
4896;DHT22;2463;49.948;8.472;2022-09-25T13:15:57;16.00;99.90
4896;DHT22;2463;49.948;8.472;2022-09-25T13:18:29;16.00;99.90
4896;DHT22;2463;49.948;8.472;2022-09-25T13:20:57;16.10;99.90
4896;DHT22;2463;49.948;8.472;2022-09-25T13:23:35;16.10;99.90
4896;DHT22;2463;49.948;8.472;2022-09-25T13:26:32;16.10;99.90
4896;DHT22;2463;49.948;8.472;2022-09-25T13:29:25;16.20;99.90
4896;DHT22;2463;49.948;8.472;2022-09-25T13:32:05;16.20;99.90
4896;DHT22;2463;49.948;8.472;2022-09-25T13:34:37;16.20;99.90
4896;DHT22;2463;49.948;8.472;2022-09-25T13:37:06;16.20;99.90
4896;DHT22;2463;49.948;8.472;2022-09-25T13:39:45;16.20;99.90
4896;DHT22;2463;49.948;8.472;2022-09-25T13:48:08;16.20;99.90
4896;DHT22;2463;49.948;8.472;2022-09-25T13:50:41;16.30;99.90
4896;DHT22;2463;49.948;8.472;2022-09-25T13:58:23;16.30;99.90
4896;DHT22;2463;49.948;8.472;2022-09-25T14:00:55;16.30;99.90
4896;DHT22;2463;49.948;8.472;2022-09-25T14:03:41;16.30;99.90
4896;DHT22;2463;49.948;8.472;2022-09-25T14:06:15;16.30;99.90
4896;DHT22;2463;49.948;8.472;2022-09-25T14:08:44;16.20;99.90
4896;DHT22;2463;49.948;8.472;2022-09-25T14:11:18;16.10;99.90
4896;DHT22;2463;49.948;8.472;2022-09-25T14:13:47;16.10;99.90
4896;DHT22;2463;49.948;8.472;2022-09-25T14:16:24;16.10;99.90
4896;DHT22;2463;49.948;8.472;2022-09-25T14:18:56;16.10;99.90
4896;DHT22;2463;49.948;8.472;2022-09-25T14:21:24;16.00;99.90
4896;DHT22;2463;49.948;8.472;2022-09-25T14:24:10;16.00;99.90
4896;DHT22;2463;49.948;8.472;2022-09-25T14:26:43;15.90;99.90
4896;DHT22;2463;49.948;8.472;2022-09-25T14:29:21;16.00;99.90
4896;DHT22;2463;49.948;8.472;2022-09-25T14:40:39;15.80;99.90
4896;DHT22;2463;49.948;8.472;2022-09-25T14:43:44;15.80;99.90
4896;DHT22;2463;49.948;8.472;2022-09-25T14:46:17;15.70;99.90
4896;DHT22;2463;49.948;8.472;2022-09-25T14:49:16;15.70;99.90
4896;DHT22;2463;49.948;8.472;2022-09-25T14:51:45;15.70;99.90
4896;DHT22;2463;49.948;8.472;2022-09-25T14:54:18;15.70;99.90
4896;DHT22;2463;49.948;8.472;2022-09-25T14:56:49;15.70;99.90
4896;DHT22;2463;49.948;8.472;2022-09-25T14:59:45;15.80;99.90
4896;DHT22;2463;49.948;8.472;2022-09-25T15:02:20;15.80;99.90
4896;DHT22;2463;49.948;8.472;2022-09-25T15:04:49;15.80;99.90
4896;DHT22;2463;49.948;8.472;2022-09-25T15:07:23;15.80;99.90
4896;DHT22;2463;49.948;8.472;2022-09-25T15:09:51;15.90;99.90
4896;DHT22;2463;49.948;8.472;2022-09-25T15:12:33;15.90;99.90
4896;DHT22;2463;49.948;8.472;2022-09-25T15:15:06;15.90;99.90
4896;DHT22;2463;49.948;8.472;2022-09-25T15:17:44;16.00;99.90
4896;DHT22;2463;49.948;8.472;2022-09-25T15:20:17;16.00;99.90
4896;DHT22;2463;49.948;8.472;2022-09-25T15:22:55;16.00;99.90
4896;DHT22;2463;49.948;8.472;2022-09-25T15:25:29;16.00;99.90
4896;DHT22;2463;49.948;8.472;2022-09-25T15:27:57;16.00;99.90
4896;DHT22;2463;49.948;8.472;2022-09-25T15:30:26;16.00;99.90
4896;DHT22;2463;49.948;8.472;2022-09-25T15:32:53;16.00;99.90
4896;DHT22;2463;49.948;8.472;2022-09-25T15:35:27;16.00;99.90
4896;DHT22;2463;49.948;8.472;2022-09-25T15:40:28;16.10;99.90
4896;DHT22;2463;49.948;8.472;2022-09-25T15:42:56;16.10;99.90
4896;DHT22;2463;49.948;8.472;2022-09-25T15:45:42;16.10;99.90
4896;DHT22;2463;49.948;8.472;2022-09-25T15:48:10;16.10;99.90
4896;DHT22;2463;49.948;8.472;2022-09-25T15:50:42;16.10;99.90
4896;DHT22;2463;49.948;8.472;2022-09-25T15:53:19;16.10;99.90
4896;DHT22;2463;49.948;8.472;2022-09-25T15:55:48;16.00;99.90
4896;DHT22;2463;49.948;8.472;2022-09-25T15:58:17;16.00;99.90
4896;DHT22;2463;49.948;8.472;2022-09-25T16:01:00;16.00;99.90
4896;DHT22;2463;49.948;8.472;2022-09-25T16:03:50;16.00;99.90
4896;DHT22;2463;49.948;8.472;2022-09-25T16:06:38;15.90;99.90
4896;DHT22;2463;49.948;8.472;2022-09-25T16:09:18;15.90;99.90
4896;DHT22;2463;49.948;8.472;2022-09-25T16:11:45;15.90;99.90
4896;DHT22;2463;49.948;8.472;2022-09-25T16:14:27;15.90;99.90
4896;DHT22;2463;49.948;8.472;2022-09-25T16:16:56;15.90;99.90
4896;DHT22;2463;49.948;8.472;2022-09-25T16:21:51;16.00;99.90
4896;DHT22;2463;49.948;8.472;2022-09-25T16:24:23;16.00;99.90
4896;DHT22;2463;49.948;8.472;2022-09-25T16:26:59;15.90;99.90
4896;DHT22;2463;49.948;8.472;2022-09-25T16:29:37;15.90;99.90
4896;DHT22;2463;49.948;8.472;2022-09-25T16:32:10;15.90;99.90
4896;DHT22;2463;49.948;8.472;2022-09-25T16:34:39;15.90;99.90
4896;DHT22;2463;49.948;8.472;2022-09-25T16:37:20;15.90;99.90
4896;DHT22;2463;49.948;8.472;2022-09-25T16:40:25;15.80;99.90
4896;DHT22;2463;49.948;8.472;2022-09-25T16:42:56;15.70;99.90
4896;DHT22;2463;49.948;8.472;2022-09-25T16:45:28;15.70;99.90
4896;DHT22;2463;49.948;8.472;2022-09-25T16:47:57;15.60;99.90
4896;DHT22;2463;49.948;8.472;2022-09-25T16:50:27;15.60;99.90
4896;DHT22;2463;49.948;8.472;2022-09-25T16:52:54;15.60;99.90
4896;DHT22;2463;49.948;8.472;2022-09-25T16:55:23;15.50;99.90
4896;DHT22;2463;49.948;8.472;2022-09-25T16:57:52;15.50;99.90
4896;DHT22;2463;49.948;8.472;2022-09-25T17:00:25;15.50;99.90
4896;DHT22;2463;49.948;8.472;2022-09-25T17:02:53;15.40;99.90
4896;DHT22;2463;49.948;8.472;2022-09-25T17:07:50;15.40;99.90
4896;DHT22;2463;49.948;8.472;2022-09-25T17:10:24;15.30;99.90
4896;DHT22;2463;49.948;8.472;2022-09-25T17:12:52;15.30;99.90
4896;DHT22;2463;49.948;8.472;2022-09-25T17:15:22;15.30;99.90
4896;DHT22;2463;49.948;8.472;2022-09-25T17:17:51;15.20;99.90
4896;DHT22;2463;49.948;8.472;2022-09-25T17:20:21;15.20;99.90
4896;DHT22;2463;49.948;8.472;2022-09-25T17:22:50;15.20;99.90
4896;DHT22;2463;49.948;8.472;2022-09-25T17:28:09;15.10;99.90
4896;DHT22;2463;49.948;8.472;2022-09-25T17:30:36;15.10;99.90
4896;DHT22;2463;49.948;8.472;2022-09-25T17:33:04;15.10;99.90
4896;DHT22;2463;49.948;8.472;2022-09-25T17:38:04;15.00;99.90
4896;DHT22;2463;49.948;8.472;2022-09-25T17:40:31;15.00;99.90
4896;DHT22;2463;49.948;8.472;2022-09-25T17:42:59;15.00;99.90
4896;DHT22;2463;49.948;8.472;2022-09-25T17:45:43;14.90;99.90
4896;DHT22;2463;49.948;8.472;2022-09-25T17:48:10;14.90;99.90
4896;DHT22;2463;49.948;8.472;2022-09-25T17:50:37;14.90;99.90
4896;DHT22;2463;49.948;8.472;2022-09-25T17:53:16;14.80;99.90
4896;DHT22;2463;49.948;8.472;2022-09-25T17:55:43;14.80;99.90
4896;DHT22;2463;49.948;8.472;2022-09-25T17:58:18;14.80;99.90
4896;DHT22;2463;49.948;8.472;2022-09-25T18:00:45;14.80;99.90
4896;DHT22;2463;49.948;8.472;2022-09-25T18:03:13;14.80;99.90
4896;DHT22;2463;49.948;8.472;2022-09-25T18:05:41;14.70;99.90
4896;DHT22;2463;49.948;8.472;2022-09-25T18:08:11;14.70;99.90
4896;DHT22;2463;49.948;8.472;2022-09-25T18:10:39;14.70;99.90
4896;DHT22;2463;49.948;8.472;2022-09-25T18:13:11;14.60;99.90
4896;DHT22;2463;49.948;8.472;2022-09-25T18:15:48;14.60;99.90
4896;DHT22;2463;49.948;8.472;2022-09-25T18:18:15;14.50;99.90
4896;DHT22;2463;49.948;8.472;2022-09-25T18:20:42;14.50;99.90
4896;DHT22;2463;49.948;8.472;2022-09-25T18:23:34;14.40;99.90
4896;DHT22;2463;49.948;8.472;2022-09-25T18:26:02;14.40;99.90
4896;DHT22;2463;49.948;8.472;2022-09-25T18:28:29;14.40;99.90
4896;DHT22;2463;49.948;8.472;2022-09-25T18:30:57;14.40;99.90
4896;DHT22;2463;49.948;8.472;2022-09-25T18:33:24;14.40;99.90
4896;DHT22;2463;49.948;8.472;2022-09-25T18:35:51;14.40;99.90
4896;DHT22;2463;49.948;8.472;2022-09-25T18:38:18;14.40;99.90
4896;DHT22;2463;49.948;8.472;2022-09-25T18:40:45;14.40;99.90
4896;DHT22;2463;49.948;8.472;2022-09-25T18:43:12;14.40;99.90
4896;DHT22;2463;49.948;8.472;2022-09-25T18:45:38;14.40;99.90
4896;DHT22;2463;49.948;8.472;2022-09-25T18:48:07;14.40;99.90
4896;DHT22;2463;49.948;8.472;2022-09-25T18:50:34;14.40;99.90
4896;DHT22;2463;49.948;8.472;2022-09-25T18:53:00;14.40;99.90